LFBD/BOD METAR and TAF weather

Enter ICAO airport designator
Station Type Date Time Source
LFBD METAR 2020/04/05 18:30 UTC NOAA

LFBD 051830Z AUTO 00000KT CAVOK 19/07 Q1013 BECMG 13010KT


Station Type Date Time Source
LFBD Decoded METAR 2020/04/05 18:30 UTC NOAA

Bordeaux / Merignac, France (LFBD) 44-50N 000-42W 61M
Apr 05, 2020 - 02:30 PM EDT / 2020.04.05 1830 UTC
Wind: Calm:0
Visibility: greater than 7 mile(s):0
Temperature: 66 F (19 C)
Dew Point: 44 F (7 C)
Relative Humidity: 45%
Pressure (altimeter): 29.91 in. Hg (1013 hPa)
ob: LFBD 051830Z AUTO 00000KT CAVOK 19/07 Q1013 BECMG 13010KT
cycle: 18

Station Type Date Time Source
LFBD TAF 2020/04/05 18:21 UTC NOAA

TAF TAF LFBD 051700Z 0518/0624 13010KT CAVOK TX20/0518Z TN11/0606Z
TEMPO 0518/0520 26008KT
BECMG 0601/0603 -RA BKN030
BECMG 0603/0605 19006KT 4000 RA SCT008 BKN014 PROB40 0607/0622 BKN006
BECMG 0622/0624 9999 NSW BKN030

Example: see airport list